createdAt,value
2022-08-19T00:02:01.364Z,23.48
2022-08-19T00:04:32.378Z,23.20
2022-08-19T00:06:59.725Z,23.85
2022-08-19T00:09:27.001Z,23.67
2022-08-19T00:11:56.263Z,23.60
2022-08-19T00:14:25.341Z,23.83
2022-08-19T00:16:55.567Z,24.70
2022-08-19T00:19:23.490Z,24.15
2022-08-19T00:21:50.500Z,25.98
2022-08-19T00:24:17.434Z,25.85
2022-08-19T00:26:46.476Z,25.23
2022-08-19T00:29:16.465Z,25.00
2022-08-19T00:31:44.051Z,26.40
2022-08-19T00:34:12.773Z,26.25
2022-08-19T00:36:40.327Z,30.92
2022-08-19T00:39:07.588Z,26.85
2022-08-19T00:41:34.774Z,27.52
2022-08-19T00:44:12.161Z,27.23
2022-08-19T00:46:40.957Z,25.55
2022-08-19T00:49:36.406Z,25.92
2022-08-19T00:52:09.646Z,27.15
2022-08-19T00:54:38.007Z,25.55
2022-08-19T00:57:08.604Z,27.48
2022-08-19T00:59:56.557Z,26.40
2022-08-19T01:02:28.759Z,28.55
2022-08-19T01:04:56.462Z,27.95
2022-08-19T01:07:23.578Z,28.42
2022-08-19T01:09:51.041Z,27.70
2022-08-19T01:12:19.122Z,26.63
2022-08-19T01:14:48.587Z,27.67
2022-08-19T01:17:17.052Z,28.85
2022-08-19T01:19:46.156Z,27.52
2022-08-19T01:22:31.519Z,28.85
2022-08-19T01:25:00.315Z,28.08
2022-08-19T01:27:31.477Z,28.80
2022-08-19T01:30:13.162Z,28.08
2022-08-19T01:32:39.861Z,30.90
2022-08-19T01:35:07.515Z,29.95
2022-08-19T01:37:50.140Z,30.30
2022-08-19T01:40:18.348Z,31.20
2022-08-19T01:42:45.060Z,28.38
2022-08-19T01:45:11.756Z,31.30
2022-08-19T01:47:38.950Z,31.75
2022-08-19T01:50:09.057Z,31.45
2022-08-19T01:52:37.733Z,32.17
2022-08-19T01:55:06.361Z,29.38
2022-08-19T01:57:33.335Z,28.77
2022-08-19T02:00:01.645Z,29.15
2022-08-19T02:02:28.310Z,28.58
2022-08-19T02:04:54.985Z,29.10
2022-08-19T02:07:22.576Z,29.45
2022-08-19T02:09:49.475Z,28.92
2022-08-19T02:12:17.262Z,28.92
2022-08-19T02:14:43.987Z,28.23
2022-08-19T02:17:10.721Z,28.77
2022-08-19T02:19:39.090Z,29.92
2022-08-19T02:22:07.875Z,29.65
2022-08-19T02:24:35.099Z,28.50
2022-08-19T02:27:01.798Z,31.63
2022-08-19T02:29:28.637Z,29.88
2022-08-19T02:31:55.342Z,31.08
2022-08-19T02:34:22.016Z,29.00
2022-08-19T02:36:52.001Z,29.85
2022-08-19T02:39:19.957Z,29.52
2022-08-19T02:41:46.743Z,29.98
2022-08-19T02:44:29.915Z,29.08
2022-08-19T02:46:58.441Z,28.75
2022-08-19T02:49:25.176Z,29.77
2022-08-19T02:51:51.943Z,30.38
2022-08-19T02:54:18.762Z,30.67
2022-08-19T02:56:46.664Z,29.00
2022-08-19T02:59:13.470Z,29.80
2022-08-19T03:01:42.563Z,29.20
2022-08-19T03:04:12.225Z,30.23
2022-08-19T03:06:40.580Z,30.85
2022-08-19T03:09:07.380Z,28.15
2022-08-19T03:11:34.883Z,32.95
2022-08-19T03:14:04.556Z,28.50
2022-08-19T03:16:33.937Z,27.40
2022-08-19T03:19:02.428Z,27.75
2022-08-19T03:21:32.186Z,26.67
2022-08-19T03:24:02.071Z,29.80
2022-08-19T03:26:28.933Z,28.60
2022-08-19T03:28:58.115Z,29.33
2022-08-19T03:31:44.764Z,27.85
2022-08-19T03:34:18.954Z,26.40
2022-08-19T03:36:46.896Z,26.55
2022-08-19T03:39:13.767Z,27.02
2022-08-19T03:41:45.290Z,26.58
2022-08-19T03:44:18.100Z,27.15
2022-08-19T03:46:46.892Z,28.25
2022-08-19T03:49:14.040Z,25.45
2022-08-19T03:51:43.207Z,27.40
2022-08-19T03:54:12.927Z,26.80
2022-08-19T03:56:41.551Z,27.90
2022-08-19T03:59:11.711Z,26.85
2022-08-19T04:01:38.527Z,27.63
2022-08-19T04:04:05.988Z,27.67
2022-08-19T04:06:38.863Z,28.88
2022-08-19T04:09:09.325Z,27.83
2022-08-19T04:11:43.112Z,28.63
2022-08-19T04:14:15.485Z,31.48
2022-08-19T04:16:44.738Z,31.02
2022-08-19T04:19:12.980Z,28.90
2022-08-19T04:21:39.757Z,30.35
2022-08-19T04:24:07.172Z,31.23
2022-08-19T04:26:37.097Z,30.27
2022-08-19T04:29:12.521Z,29.38
2022-08-19T04:31:41.922Z,30.85
2022-08-19T04:34:11.889Z,32.10
2022-08-19T04:36:42.122Z,31.05
2022-08-19T04:39:12.698Z,30.23
2022-08-19T04:41:57.997Z,30.25
2022-08-19T04:44:25.124Z,29.88
2022-08-19T04:46:52.748Z,28.67
2022-08-19T04:49:23.232Z,30.35
2022-08-19T04:51:53.362Z,29.90
2022-08-19T04:54:37.094Z,29.52
2022-08-19T04:57:09.467Z,29.52
2022-08-19T04:59:37.310Z,28.02
2022-08-19T05:02:05.501Z,30.42
2022-08-19T05:04:33.123Z,27.25
2022-08-19T05:07:01.992Z,28.23
2022-08-19T05:09:55.324Z,27.10
2022-08-19T05:12:16.783Z,28.98
2022-08-19T05:14:45.338Z,26.92
2022-08-19T05:17:27.020Z,26.95
2022-08-19T05:20:13.655Z,26.60
2022-08-19T05:22:40.459Z,29.45
2022-08-19T05:25:14.267Z,27.85
2022-08-19T05:27:42.710Z,27.42
2022-08-19T05:30:10.655Z,27.33
2022-08-19T05:32:38.305Z,26.83
2022-08-19T05:35:06.038Z,26.17
2022-08-19T05:37:32.786Z,25.70
2022-08-19T05:39:59.583Z,26.00
2022-08-19T05:42:26.540Z,27.10
2022-08-19T05:44:53.372Z,26.33
2022-08-19T05:47:21.095Z,25.98
2022-08-19T05:49:50.829Z,25.10
2022-08-19T05:52:18.802Z,25.60
2022-08-19T05:54:51.343Z,26.67
2022-08-19T05:57:20.027Z,27.48
2022-08-19T05:59:49.338Z,27.38
2022-08-19T06:02:20.275Z,26.88
2022-08-19T06:04:47.054Z,26.02
2022-08-19T06:07:13.898Z,24.88
2022-08-19T06:09:41.302Z,23.65
2022-08-19T06:12:10.427Z,23.13
2022-08-19T06:14:41.673Z,22.42
2022-08-19T06:17:09.384Z,21.35
2022-08-19T06:19:41.210Z,21.08
2022-08-19T06:22:08.354Z,20.33
2022-08-19T06:24:36.252Z,20.75
2022-08-19T06:27:04.212Z,21.10
2022-08-19T06:29:31.146Z,21.05
2022-08-19T06:32:00.493Z,20.15
2022-08-19T06:34:30.977Z,19.80
2022-08-19T06:37:02.074Z,19.83
2022-08-19T06:39:33.686Z,18.55
2022-08-19T06:42:04.206Z,19.83
2022-08-19T06:44:35.348Z,19.60
2022-08-19T06:47:14.562Z,18.95
2022-08-19T06:49:42.211Z,18.92
2022-08-19T06:52:13.818Z,18.77
2022-08-19T06:54:55.935Z,19.23
2022-08-19T06:57:24.820Z,18.77
2022-08-19T06:59:52.258Z,19.13
2022-08-19T07:02:19.776Z,18.80
2022-08-19T07:04:46.564Z,19.55
2022-08-19T07:07:20.211Z,19.23
2022-08-19T07:09:58.296Z,18.88
2022-08-19T07:12:30.172Z,18.50
2022-08-19T07:14:58.693Z,17.90
2022-08-19T07:17:25.986Z,18.20
2022-08-19T07:19:54.427Z,17.67
2022-08-19T07:22:24.186Z,17.08
2022-08-19T07:24:54.047Z,18.10
2022-08-19T07:27:25.368Z,17.60
2022-08-19T07:29:57.592Z,17.33
2022-08-19T07:32:27.674Z,17.75
2022-08-19T07:34:55.048Z,18.85
2022-08-19T07:37:24.056Z,18.90
2022-08-19T07:39:50.867Z,17.70
2022-08-19T07:42:18.351Z,18.77
2022-08-19T07:44:49.941Z,18.13
2022-08-19T07:47:48.172Z,18.10
2022-08-19T07:50:08.164Z,20.95
2022-08-19T07:52:37.208Z,17.98
2022-08-19T07:55:05.716Z,17.50
2022-08-19T07:57:32.521Z,18.92
2022-08-19T07:59:59.900Z,19.00
2022-08-19T08:02:26.698Z,17.83
2022-08-19T08:05:12.058Z,19.63
2022-08-19T08:07:58.800Z,18.50
2022-08-19T08:10:26.058Z,18.67
2022-08-19T08:12:58.398Z,21.25
2022-08-19T08:15:43.169Z,19.75
2022-08-19T08:18:12.236Z,20.50
2022-08-19T08:20:39.837Z,20.13
2022-08-19T08:23:26.172Z,20.33
2022-08-19T08:25:55.964Z,20.40
2022-08-19T08:28:24.041Z,20.55
2022-08-19T08:30:51.631Z,20.17
2022-08-19T08:33:32.800Z,19.85
2022-08-19T08:36:01.969Z,18.52
2022-08-19T08:38:38.390Z,18.65
2022-08-19T08:41:27.032Z,19.15
2022-08-19T08:43:54.313Z,17.90
2022-08-19T08:46:33.024Z,17.33
2022-08-19T08:49:26.200Z,17.08
2022-08-19T08:52:16.837Z,16.73
2022-08-19T08:54:48.770Z,15.45
2022-08-19T08:57:42.575Z,15.68
2022-08-19T09:00:16.178Z,15.88
2022-08-19T09:02:43.995Z,16.52
2022-08-19T09:05:16.864Z,16.38
2022-08-19T09:08:08.100Z,13.73
2022-08-19T09:10:47.228Z,14.00
2022-08-19T09:13:26.136Z,14.60
2022-08-19T09:15:59.126Z,13.70
2022-08-19T09:18:26.254Z,13.50
2022-08-19T09:20:57.209Z,12.98
2022-08-19T09:23:26.943Z,12.43
2022-08-19T09:39:16.768Z,13.38
2022-08-19T09:41:47.326Z,12.98
2022-08-19T09:44:15.681Z,12.57
2022-08-19T09:46:42.421Z,13.40
2022-08-19T09:49:09.136Z,14.00
2022-08-19T09:51:35.896Z,13.63
2022-08-19T09:54:05.231Z,12.95
2022-08-19T09:56:32.962Z,12.35
2022-08-19T09:59:02.286Z,12.05
2022-08-19T10:01:31.573Z,13.88
2022-08-19T10:04:00.149Z,12.60
2022-08-19T10:06:45.531Z,12.10
2022-08-19T10:09:15.250Z,12.05
2022-08-19T10:11:52.573Z,12.68
2022-08-19T10:14:23.530Z,12.60
2022-08-19T10:16:51.659Z,12.43
2022-08-19T10:19:25.281Z,12.55
2022-08-19T10:21:53.138Z,11.73
2022-08-19T10:24:21.642Z,11.77
2022-08-19T10:26:55.988Z,12.20
2022-08-19T10:29:31.952Z,11.68
2022-08-19T10:32:02.437Z,12.02
2022-08-19T10:34:31.178Z,11.60
2022-08-19T10:37:00.956Z,11.23
2022-08-19T10:39:41.045Z,11.30
2022-08-19T10:42:11.715Z,11.35
2022-08-19T10:44:38.802Z,11.13
2022-08-19T10:47:17.902Z,10.93
2022-08-19T10:50:11.701Z,11.13
2022-08-19T10:52:49.811Z,10.93
2022-08-19T10:55:40.258Z,11.20
2022-08-19T10:58:16.609Z,11.23
2022-08-19T11:00:44.951Z,10.77
2022-08-19T11:03:11.781Z,10.90
2022-08-19T11:05:39.986Z,10.90
2022-08-19T11:08:23.074Z,11.05
2022-08-19T11:10:52.067Z,11.57
2022-08-19T11:13:18.781Z,10.40
2022-08-19T11:15:48.353Z,11.18
2022-08-19T11:18:15.131Z,10.90
2022-08-19T11:20:42.323Z,10.93
2022-08-19T11:23:09.066Z,10.77
2022-08-19T11:25:36.220Z,10.35
2022-08-19T11:28:03.086Z,11.20
2022-08-19T11:30:29.815Z,10.77
2022-08-19T11:32:56.689Z,10.60
2022-08-19T11:35:24.245Z,11.23
2022-08-19T11:37:51.087Z,10.38
2022-08-19T11:40:18.080Z,10.98
2022-08-19T11:42:57.505Z,10.70
2022-08-19T11:45:25.675Z,11.38
2022-08-19T11:47:52.646Z,10.93
2022-08-19T11:50:19.779Z,10.63
2022-08-19T11:52:47.489Z,10.63
2022-08-19T11:55:15.118Z,11.70
2022-08-19T11:57:43.509Z,10.75
2022-08-19T12:00:12.999Z,11.27
2022-08-19T12:02:40.291Z,10.88
2022-08-19T12:05:12.297Z,10.98
2022-08-19T12:07:40.626Z,10.73
2022-08-19T12:10:07.939Z,9.77
2022-08-19T12:12:35.352Z,10.50
2022-08-19T12:15:02.761Z,10.75
2022-08-19T12:17:29.703Z,10.10
2022-08-19T12:19:56.541Z,10.60
2022-08-19T12:22:23.542Z,10.57
2022-08-19T12:24:51.802Z,9.77
2022-08-19T12:27:25.487Z,10.10
2022-08-19T12:30:08.647Z,9.82
2022-08-19T12:32:35.536Z,10.27
2022-08-19T12:35:02.296Z,9.70
2022-08-19T12:37:29.269Z,10.20
2022-08-19T12:39:56.038Z,10.38
2022-08-19T12:42:23.724Z,9.77
2022-08-19T12:44:51.533Z,9.73
2022-08-19T12:47:19.626Z,9.98
2022-08-19T12:49:53.095Z,10.57
2022-08-19T12:52:24.176Z,10.02
2022-08-19T12:54:54.915Z,9.82
2022-08-19T12:57:24.470Z,9.32
2022-08-19T13:00:14.797Z,10.63
2022-08-19T13:02:46.629Z,9.75
2022-08-19T13:05:26.154Z,10.77
2022-08-19T13:07:58.246Z,11.13
2022-08-19T13:10:35.825Z,11.30
2022-08-19T13:13:08.525Z,11.65
2022-08-19T13:15:38.400Z,11.25
2022-08-19T13:18:05.230Z,11.13
2022-08-19T13:20:32.191Z,11.07
2022-08-19T13:22:58.919Z,11.32
2022-08-19T13:25:26.370Z,10.80
2022-08-19T13:27:53.870Z,11.25
2022-08-19T13:30:40.363Z,11.60
2022-08-19T13:33:17.246Z,11.18
2022-08-19T13:35:51.769Z,11.45
2022-08-19T13:38:21.814Z,11.43
2022-08-19T13:40:51.262Z,10.90
2022-08-19T13:43:22.993Z,12.00
2022-08-19T13:45:56.370Z,11.98
2022-08-19T13:48:24.684Z,12.55
2022-08-19T13:50:51.634Z,13.40
2022-08-19T13:53:19.194Z,13.07
2022-08-19T13:55:46.247Z,12.25
2022-08-19T13:58:13.435Z,12.48
2022-08-19T14:00:43.462Z,12.13
2022-08-19T14:03:10.669Z,13.02
2022-08-19T14:05:40.678Z,12.48
2022-08-19T14:08:07.722Z,13.18
2022-08-19T14:10:34.484Z,12.25
2022-08-19T14:13:04.670Z,13.48
2022-08-19T14:15:32.446Z,13.35
2022-08-19T14:18:00.429Z,13.27
2022-08-19T14:20:27.430Z,13.05
2022-08-19T14:22:55.643Z,13.32
2022-08-19T14:25:26.564Z,14.05
2022-08-19T14:27:53.522Z,13.52
2022-08-19T14:30:27.821Z,12.45
2022-08-19T14:32:55.627Z,12.20
2022-08-19T14:35:23.377Z,13.10
2022-08-19T14:37:51.447Z,12.88
2022-08-19T14:40:22.878Z,12.52
2022-08-19T14:42:49.709Z,12.25
2022-08-19T14:45:16.397Z,12.63
2022-08-19T14:47:43.206Z,12.45
2022-08-19T14:50:18.187Z,12.45
2022-08-19T14:52:48.747Z,11.20
2022-08-19T14:55:16.789Z,12.02
2022-08-19T14:57:44.401Z,11.48
2022-08-19T15:00:14.182Z,11.95
2022-08-19T15:02:47.363Z,11.50
2022-08-19T15:05:14.434Z,11.77
2022-08-19T15:07:41.908Z,11.65
2022-08-19T15:10:10.455Z,11.75
2022-08-19T15:12:40.758Z,11.45
2022-08-19T15:15:16.262Z,10.70
2022-08-19T15:17:46.493Z,11.02
2022-08-19T15:20:19.972Z,11.50
2022-08-19T15:22:46.957Z,11.55
2022-08-19T15:25:17.463Z,10.88
2022-08-19T15:27:44.275Z,11.02
2022-08-19T15:30:12.658Z,11.20
2022-08-19T15:32:40.108Z,10.88
2022-08-19T15:35:08.378Z,11.38
2022-08-19T15:37:37.111Z,10.80
2022-08-19T15:40:06.238Z,10.90
2022-08-19T15:42:33.660Z,11.48
2022-08-19T15:45:02.015Z,11.02
2022-08-19T15:47:34.804Z,10.77
2022-08-19T15:50:14.956Z,11.10
2022-08-19T15:52:51.694Z,10.50
2022-08-19T15:55:32.816Z,10.27
2022-08-19T15:58:29.925Z,10.18
2022-08-19T16:01:20.738Z,10.38
2022-08-19T16:04:14.300Z,10.45
2022-08-19T16:06:46.148Z,10.10
2022-08-19T16:09:13.362Z,10.35
2022-08-19T16:11:45.424Z,10.57
2022-08-19T16:14:16.274Z,10.70
2022-08-19T16:16:44.523Z,11.23
2022-08-19T16:19:12.028Z,11.05
2022-08-19T16:21:41.516Z,10.93
2022-08-19T16:24:12.972Z,11.45
2022-08-19T16:26:41.182Z,10.90
2022-08-19T16:29:13.144Z,11.10
2022-08-19T16:31:43.572Z,11.45
2022-08-19T16:34:11.194Z,10.50
2022-08-19T16:36:42.137Z,10.60
2022-08-19T16:39:14.729Z,10.88
2022-08-19T16:41:42.768Z,10.95
2022-08-19T16:44:11.638Z,10.70
2022-08-19T16:46:41.540Z,11.00
2022-08-19T16:49:10.657Z,11.38
2022-08-19T16:51:38.901Z,11.73
2022-08-19T16:54:06.161Z,11.13
2022-08-19T16:56:34.541Z,12.52
2022-08-19T16:59:01.805Z,11.60
2022-08-19T17:01:28.966Z,11.98
2022-08-19T17:03:56.919Z,11.77
2022-08-19T17:06:27.320Z,12.32
2022-08-19T17:08:58.937Z,11.25
2022-08-19T17:11:27.439Z,11.65
2022-08-19T17:13:55.557Z,11.93
2022-08-19T17:16:24.893Z,11.23
2022-08-19T17:18:55.884Z,12.00
2022-08-19T17:21:27.422Z,12.45
2022-08-19T17:23:58.118Z,11.60
2022-08-19T17:26:25.947Z,11.25
2022-08-19T17:28:55.350Z,11.88
2022-08-19T17:31:24.519Z,11.23
2022-08-19T17:33:52.096Z,11.85
2022-08-19T17:36:26.484Z,11.35
2022-08-19T17:38:55.395Z,11.00
2022-08-19T17:41:24.282Z,11.77
2022-08-19T17:43:51.421Z,11.02
2022-08-19T17:46:19.443Z,11.10
2022-08-19T17:48:52.684Z,10.60
2022-08-19T17:51:42.079Z,10.77
2022-08-19T17:54:16.215Z,10.50
2022-08-19T17:56:43.972Z,10.05
2022-08-19T17:59:14.218Z,10.45
